sensor_id;sensor_type;location;lat;lon;timestamp;P1;durP1;ratioP1;P2;durP2;ratioP2
24644;SDS011;12780;45.502;9.146;2023-12-04T00:02:14;31.05;;;16.42;;
24644;SDS011;12780;45.502;9.146;2023-12-04T00:04:40;35.60;;;16.60;;
24644;SDS011;12780;45.502;9.146;2023-12-04T00:07:06;33.92;;;17.65;;
24644;SDS011;12780;45.502;9.146;2023-12-04T00:09:32;38.08;;;16.33;;
24644;SDS011;12780;45.502;9.146;2023-12-04T00:11:58;33.10;;;16.30;;
24644;SDS011;12780;45.502;9.146;2023-12-04T00:14:24;31.08;;;16.75;;
24644;SDS011;12780;45.502;9.146;2023-12-04T00:16:50;29.80;;;15.75;;
24644;SDS011;12780;45.502;9.146;2023-12-04T00:19:16;30.67;;;15.45;;
24644;SDS011;12780;45.502;9.146;2023-12-04T00:21:42;28.95;;;15.85;;
24644;SDS011;12780;45.502;9.146;2023-12-04T00:24:08;34.92;;;17.90;;
24644;SDS011;12780;45.502;9.146;2023-12-04T00:26:34;28.30;;;16.23;;
24644;SDS011;12780;45.502;9.146;2023-12-04T00:29:00;33.50;;;15.98;;
24644;SDS011;12780;45.502;9.146;2023-12-04T00:31:27;30.13;;;15.20;;
24644;SDS011;12780;45.502;9.146;2023-12-04T00:33:53;31.33;;;15.60;;
24644;SDS011;12780;45.502;9.146;2023-12-04T00:36:19;35.50;;;16.35;;
24644;SDS011;12780;45.502;9.146;2023-12-04T00:38:45;39.92;;;21.70;;
24644;SDS011;12780;45.502;9.146;2023-12-04T00:41:11;47.30;;;26.98;;
24644;SDS011;12780;45.502;9.146;2023-12-04T00:43:37;70.47;;;32.33;;
24644;SDS011;12780;45.502;9.146;2023-12-04T00:46:03;59.17;;;31.63;;
24644;SDS011;12780;45.502;9.146;2023-12-04T00:48:29;62.28;;;31.73;;
24644;SDS011;12780;45.502;9.146;2023-12-04T00:50:57;50.53;;;25.17;;
24644;SDS011;12780;45.502;9.146;2023-12-04T00:53:23;56.70;;;29.55;;
24644;SDS011;12780;45.502;9.146;2023-12-04T00:55:49;44.33;;;23.67;;
24644;SDS011;12780;45.502;9.146;2023-12-04T00:58:15;40.38;;;19.15;;
24644;SDS011;12780;45.502;9.146;2023-12-04T01:00:41;36.58;;;19.60;;
24644;SDS011;12780;45.502;9.146;2023-12-04T01:03:07;38.58;;;18.10;;
24644;SDS011;12780;45.502;9.146;2023-12-04T01:05:33;34.55;;;17.48;;
24644;SDS011;12780;45.502;9.146;2023-12-04T01:08:00;33.15;;;17.33;;
24644;SDS011;12780;45.502;9.146;2023-12-04T01:10:26;33.75;;;18.23;;
24644;SDS011;12780;45.502;9.146;2023-12-04T01:12:52;36.55;;;16.70;;
24644;SDS011;12780;45.502;9.146;2023-12-04T01:15:18;34.97;;;16.90;;
24644;SDS011;12780;45.502;9.146;2023-12-04T01:17:44;37.08;;;17.95;;
24644;SDS011;12780;45.502;9.146;2023-12-04T01:20:10;29.42;;;14.65;;
24644;SDS011;12780;45.502;9.146;2023-12-04T01:22:36;32.13;;;15.32;;
24644;SDS011;12780;45.502;9.146;2023-12-04T01:25:02;28.90;;;14.73;;
24644;SDS011;12780;45.502;9.146;2023-12-04T01:27:28;25.77;;;13.35;;
24644;SDS011;12780;45.502;9.146;2023-12-04T01:29:54;23.92;;;12.32;;
24644;SDS011;12780;45.502;9.146;2023-12-04T01:32:20;22.83;;;12.70;;
24644;SDS011;12780;45.502;9.146;2023-12-04T01:34:46;25.05;;;13.23;;
24644;SDS011;12780;45.502;9.146;2023-12-04T01:37:12;26.33;;;13.50;;
24644;SDS011;12780;45.502;9.146;2023-12-04T01:39:38;23.45;;;12.25;;
24644;SDS011;12780;45.502;9.146;2023-12-04T01:42:04;23.40;;;13.02;;
24644;SDS011;12780;45.502;9.146;2023-12-04T01:44:30;23.33;;;12.00;;
24644;SDS011;12780;45.502;9.146;2023-12-04T01:46:56;22.35;;;11.30;;
24644;SDS011;12780;45.502;9.146;2023-12-04T01:49:22;20.75;;;10.70;;
24644;SDS011;12780;45.502;9.146;2023-12-04T01:51:49;17.35;;;9.40;;
24644;SDS011;12780;45.502;9.146;2023-12-04T01:54:15;18.25;;;9.90;;
24644;SDS011;12780;45.502;9.146;2023-12-04T01:56:42;21.17;;;11.63;;
24644;SDS011;12780;45.502;9.146;2023-12-04T01:59:08;22.45;;;11.68;;
24644;SDS011;12780;45.502;9.146;2023-12-04T02:01:34;18.27;;;10.57;;
24644;SDS011;12780;45.502;9.146;2023-12-04T02:04:01;17.42;;;9.00;;
24644;SDS011;12780;45.502;9.146;2023-12-04T02:06:28;19.88;;;9.30;;
24644;SDS011;12780;45.502;9.146;2023-12-04T02:08:54;21.02;;;10.40;;
24644;SDS011;12780;45.502;9.146;2023-12-04T02:11:22;19.08;;;9.52;;
24644;SDS011;12780;45.502;9.146;2023-12-04T02:13:48;21.45;;;9.30;;
24644;SDS011;12780;45.502;9.146;2023-12-04T02:16:14;14.65;;;8.48;;
24644;SDS011;12780;45.502;9.146;2023-12-04T02:18:40;17.25;;;9.50;;
24644;SDS011;12780;45.502;9.146;2023-12-04T02:21:07;16.92;;;9.27;;
24644;SDS011;12780;45.502;9.146;2023-12-04T02:23:33;19.67;;;9.68;;
24644;SDS011;12780;45.502;9.146;2023-12-04T02:25:59;20.33;;;9.82;;
24644;SDS011;12780;45.502;9.146;2023-12-04T02:28:27;17.77;;;9.38;;
24644;SDS011;12780;45.502;9.146;2023-12-04T02:30:54;20.35;;;10.15;;
24644;SDS011;12780;45.502;9.146;2023-12-04T02:33:21;23.88;;;9.70;;
24644;SDS011;12780;45.502;9.146;2023-12-04T02:35:49;19.15;;;9.60;;
24644;SDS011;12780;45.502;9.146;2023-12-04T02:38:16;16.30;;;8.90;;
24644;SDS011;12780;45.502;9.146;2023-12-04T02:40:45;18.90;;;8.73;;
24644;SDS011;12780;45.502;9.146;2023-12-04T02:43:11;15.90;;;8.20;;
24644;SDS011;12780;45.502;9.146;2023-12-04T02:45:37;22.38;;;9.93;;
24644;SDS011;12780;45.502;9.146;2023-12-04T02:48:03;14.43;;;8.93;;
24644;SDS011;12780;45.502;9.146;2023-12-04T02:50:29;14.77;;;8.52;;
24644;SDS011;12780;45.502;9.146;2023-12-04T02:52:55;15.30;;;8.48;;
24644;SDS011;12780;45.502;9.146;2023-12-04T02:55:21;13.88;;;8.23;;
24644;SDS011;12780;45.502;9.146;2023-12-04T02:57:47;16.50;;;8.27;;
24644;SDS011;12780;45.502;9.146;2023-12-04T03:00:13;15.73;;;7.85;;
24644;SDS011;12780;45.502;9.146;2023-12-04T03:02:39;14.13;;;7.72;;
24644;SDS011;12780;45.502;9.146;2023-12-04T03:05:05;14.77;;;7.57;;
24644;SDS011;12780;45.502;9.146;2023-12-04T03:07:31;13.07;;;7.72;;
24644;SDS011;12780;45.502;9.146;2023-12-04T03:09:57;17.75;;;8.35;;
24644;SDS011;12780;45.502;9.146;2023-12-04T03:12:23;16.38;;;8.25;;
24644;SDS011;12780;45.502;9.146;2023-12-04T03:14:49;15.15;;;8.40;;
24644;SDS011;12780;45.502;9.146;2023-12-04T03:17:15;16.30;;;8.40;;
24644;SDS011;12780;45.502;9.146;2023-12-04T03:19:41;14.65;;;8.07;;
24644;SDS011;12780;45.502;9.146;2023-12-04T03:22:07;15.43;;;8.18;;
24644;SDS011;12780;45.502;9.146;2023-12-04T03:24:33;13.13;;;7.30;;
24644;SDS011;12780;45.502;9.146;2023-12-04T03:26:59;12.75;;;7.15;;
24644;SDS011;12780;45.502;9.146;2023-12-04T03:29:25;13.77;;;7.28;;
24644;SDS011;12780;45.502;9.146;2023-12-04T03:31:51;15.07;;;7.78;;
24644;SDS011;12780;45.502;9.146;2023-12-04T03:34:17;12.38;;;7.07;;
24644;SDS011;12780;45.502;9.146;2023-12-04T03:36:43;15.52;;;6.40;;
24644;SDS011;12780;45.502;9.146;2023-12-04T03:39:09;13.05;;;6.88;;
24644;SDS011;12780;45.502;9.146;2023-12-04T03:41:35;12.95;;;7.35;;
24644;SDS011;12780;45.502;9.146;2023-12-04T03:44:01;13.30;;;7.40;;
24644;SDS011;12780;45.502;9.146;2023-12-04T03:46:27;11.38;;;6.88;;
24644;SDS011;12780;45.502;9.146;2023-12-04T03:48:53;14.00;;;7.13;;
24644;SDS011;12780;45.502;9.146;2023-12-04T03:51:19;13.80;;;6.35;;
24644;SDS011;12780;45.502;9.146;2023-12-04T03:53:45;11.90;;;6.65;;
24644;SDS011;12780;45.502;9.146;2023-12-04T03:56:11;12.68;;;6.85;;
24644;SDS011;12780;45.502;9.146;2023-12-04T03:58:37;9.20;;;6.35;;
24644;SDS011;12780;45.502;9.146;2023-12-04T04:01:04;12.23;;;7.03;;
24644;SDS011;12780;45.502;9.146;2023-12-04T04:03:30;13.25;;;6.55;;
24644;SDS011;12780;45.502;9.146;2023-12-04T04:05:56;10.20;;;6.70;;
24644;SDS011;12780;45.502;9.146;2023-12-04T04:08:22;12.02;;;6.70;;
24644;SDS011;12780;45.502;9.146;2023-12-04T04:10:48;11.57;;;6.15;;
24644;SDS011;12780;45.502;9.146;2023-12-04T04:13:14;12.40;;;6.57;;
24644;SDS011;12780;45.502;9.146;2023-12-04T04:15:40;11.15;;;6.28;;
24644;SDS011;12780;45.502;9.146;2023-12-04T04:18:06;10.90;;;5.90;;
24644;SDS011;12780;45.502;9.146;2023-12-04T04:20:32;12.13;;;6.25;;
24644;SDS011;12780;45.502;9.146;2023-12-04T04:22:58;11.45;;;6.43;;
24644;SDS011;12780;45.502;9.146;2023-12-04T04:25:24;8.88;;;5.82;;
24644;SDS011;12780;45.502;9.146;2023-12-04T04:27:50;10.38;;;6.05;;
24644;SDS011;12780;45.502;9.146;2023-12-04T04:30:16;13.07;;;6.43;;
24644;SDS011;12780;45.502;9.146;2023-12-04T04:32:42;10.43;;;5.93;;
24644;SDS011;12780;45.502;9.146;2023-12-04T04:35:08;10.13;;;6.30;;
24644;SDS011;12780;45.502;9.146;2023-12-04T04:37:35;9.82;;;6.07;;
24644;SDS011;12780;45.502;9.146;2023-12-04T04:40:01;11.40;;;6.63;;
24644;SDS011;12780;45.502;9.146;2023-12-04T04:42:27;12.52;;;6.32;;
24644;SDS011;12780;45.502;9.146;2023-12-04T04:44:53;11.55;;;6.10;;
24644;SDS011;12780;45.502;9.146;2023-12-04T04:47:19;16.48;;;6.45;;
24644;SDS011;12780;45.502;9.146;2023-12-04T04:49:45;11.63;;;6.07;;
24644;SDS011;12780;45.502;9.146;2023-12-04T04:52:11;14.23;;;6.05;;
24644;SDS011;12780;45.502;9.146;2023-12-04T04:54:37;10.95;;;5.78;;
24644;SDS011;12780;45.502;9.146;2023-12-04T04:57:03;12.13;;;6.32;;
24644;SDS011;12780;45.502;9.146;2023-12-04T04:59:29;10.23;;;6.00;;
24644;SDS011;12780;45.502;9.146;2023-12-04T05:01:57;11.82;;;6.45;;
24644;SDS011;12780;45.502;9.146;2023-12-04T05:04:23;12.60;;;6.25;;
24644;SDS011;12780;45.502;9.146;2023-12-04T05:06:49;12.15;;;5.93;;
24644;SDS011;12780;45.502;9.146;2023-12-04T05:09:15;13.07;;;6.45;;
24644;SDS011;12780;45.502;9.146;2023-12-04T05:11:41;11.35;;;6.65;;
24644;SDS011;12780;45.502;9.146;2023-12-04T05:14:07;11.75;;;6.78;;
24644;SDS011;12780;45.502;9.146;2023-12-04T05:16:33;13.73;;;6.57;;
24644;SDS011;12780;45.502;9.146;2023-12-04T05:18:59;11.82;;;6.60;;
24644;SDS011;12780;45.502;9.146;2023-12-04T05:21:25;11.43;;;6.72;;
24644;SDS011;12780;45.502;9.146;2023-12-04T05:23:51;12.85;;;6.47;;
24644;SDS011;12780;45.502;9.146;2023-12-04T05:26:17;11.00;;;6.13;;
24644;SDS011;12780;45.502;9.146;2023-12-04T05:28:43;10.88;;;6.20;;
24644;SDS011;12780;45.502;9.146;2023-12-04T05:31:09;10.85;;;6.40;;
24644;SDS011;12780;45.502;9.146;2023-12-04T05:33:35;12.57;;;6.53;;
24644;SDS011;12780;45.502;9.146;2023-12-04T05:36:01;14.38;;;6.97;;
24644;SDS011;12780;45.502;9.146;2023-12-04T05:38:27;15.35;;;6.30;;
24644;SDS011;12780;45.502;9.146;2023-12-04T05:40:53;12.93;;;6.63;;
24644;SDS011;12780;45.502;9.146;2023-12-04T05:43:19;14.43;;;6.80;;
24644;SDS011;12780;45.502;9.146;2023-12-04T05:45:46;11.52;;;5.90;;
24644;SDS011;12780;45.502;9.146;2023-12-04T05:48:12;12.70;;;6.57;;
24644;SDS011;12780;45.502;9.146;2023-12-04T05:50:38;13.82;;;7.10;;
24644;SDS011;12780;45.502;9.146;2023-12-04T05:53:05;11.73;;;6.60;;
24644;SDS011;12780;45.502;9.146;2023-12-04T05:55:32;12.60;;;6.57;;
24644;SDS011;12780;45.502;9.146;2023-12-04T05:57:58;12.30;;;6.80;;
24644;SDS011;12780;45.502;9.146;2023-12-04T06:00:24;14.02;;;6.80;;
24644;SDS011;12780;45.502;9.146;2023-12-04T06:02:50;14.43;;;7.15;;
24644;SDS011;12780;45.502;9.146;2023-12-04T06:05:16;15.63;;;7.07;;
24644;SDS011;12780;45.502;9.146;2023-12-04T06:07:43;17.30;;;7.88;;
24644;SDS011;12780;45.502;9.146;2023-12-04T06:10:09;12.73;;;6.68;;
24644;SDS011;12780;45.502;9.146;2023-12-04T06:12:35;11.82;;;6.82;;
24644;SDS011;12780;45.502;9.146;2023-12-04T06:15:01;12.52;;;6.85;;
24644;SDS011;12780;45.502;9.146;2023-12-04T06:17:27;14.95;;;7.10;;
24644;SDS011;12780;45.502;9.146;2023-12-04T06:19:53;14.57;;;7.18;;
24644;SDS011;12780;45.502;9.146;2023-12-04T06:22:19;12.50;;;6.97;;
24644;SDS011;12780;45.502;9.146;2023-12-04T06:24:46;12.85;;;7.38;;
24644;SDS011;12780;45.502;9.146;2023-12-04T06:27:16;15.38;;;7.57;;
24644;SDS011;12780;45.502;9.146;2023-12-04T06:29:45;15.70;;;6.85;;
24644;SDS011;12780;45.502;9.146;2023-12-04T06:32:11;14.73;;;7.43;;
24644;SDS011;12780;45.502;9.146;2023-12-04T06:34:37;15.82;;;7.63;;
24644;SDS011;12780;45.502;9.146;2023-12-04T06:37:03;14.43;;;7.47;;
24644;SDS011;12780;45.502;9.146;2023-12-04T06:39:33;12.55;;;6.63;;
24644;SDS011;12780;45.502;9.146;2023-12-04T06:41:59;15.98;;;7.57;;
24644;SDS011;12780;45.502;9.146;2023-12-04T06:44:25;14.20;;;8.00;;
24644;SDS011;12780;45.502;9.146;2023-12-04T06:46:52;18.70;;;8.15;;
24644;SDS011;12780;45.502;9.146;2023-12-04T06:49:18;15.63;;;7.50;;
24644;SDS011;12780;45.502;9.146;2023-12-04T06:51:44;13.60;;;7.35;;
24644;SDS011;12780;45.502;9.146;2023-12-04T06:54:10;15.13;;;7.85;;
24644;SDS011;12780;45.502;9.146;2023-12-04T06:56:38;16.52;;;7.82;;
24644;SDS011;12780;45.502;9.146;2023-12-04T06:59:04;20.33;;;8.70;;
24644;SDS011;12780;45.502;9.146;2023-12-04T07:01:30;12.45;;;7.55;;
24644;SDS011;12780;45.502;9.146;2023-12-04T07:03:56;13.68;;;7.88;;
24644;SDS011;12780;45.502;9.146;2023-12-04T07:06:22;15.88;;;8.15;;
24644;SDS011;12780;45.502;9.146;2023-12-04T07:08:49;15.15;;;7.80;;
24644;SDS011;12780;45.502;9.146;2023-12-04T07:11:15;13.82;;;7.88;;
24644;SDS011;12780;45.502;9.146;2023-12-04T07:13:41;15.38;;;7.93;;
24644;SDS011;12780;45.502;9.146;2023-12-04T07:16:07;15.68;;;7.93;;
24644;SDS011;12780;45.502;9.146;2023-12-04T07:18:34;18.33;;;9.27;;
24644;SDS011;12780;45.502;9.146;2023-12-04T07:21:00;18.63;;;8.05;;
24644;SDS011;12780;45.502;9.146;2023-12-04T07:23:26;16.92;;;8.45;;
24644;SDS011;12780;45.502;9.146;2023-12-04T07:25:52;15.82;;;7.75;;
24644;SDS011;12780;45.502;9.146;2023-12-04T07:28:18;14.90;;;9.00;;
24644;SDS011;12780;45.502;9.146;2023-12-04T07:30:44;14.75;;;8.32;;
24644;SDS011;12780;45.502;9.146;2023-12-04T07:33:11;13.25;;;7.97;;
24644;SDS011;12780;45.502;9.146;2023-12-04T07:35:37;17.30;;;8.40;;
24644;SDS011;12780;45.502;9.146;2023-12-04T07:38:03;15.55;;;8.20;;
24644;SDS011;12780;45.502;9.146;2023-12-04T07:40:30;15.02;;;8.50;;
24644;SDS011;12780;45.502;9.146;2023-12-04T07:42:56;17.98;;;8.57;;
24644;SDS011;12780;45.502;9.146;2023-12-04T07:45:22;18.10;;;9.05;;
24644;SDS011;12780;45.502;9.146;2023-12-04T07:47:49;18.33;;;8.93;;
24644;SDS011;12780;45.502;9.146;2023-12-04T07:50:15;18.52;;;9.77;;
24644;SDS011;12780;45.502;9.146;2023-12-04T07:52:42;22.27;;;9.98;;
24644;SDS011;12780;45.502;9.146;2023-12-04T07:55:08;16.30;;;8.55;;
24644;SDS011;12780;45.502;9.146;2023-12-04T07:57:34;17.10;;;8.70;;
24644;SDS011;12780;45.502;9.146;2023-12-04T08:00:00;20.50;;;9.30;;
24644;SDS011;12780;45.502;9.146;2023-12-04T08:02:26;16.48;;;8.95;;
24644;SDS011;12780;45.502;9.146;2023-12-04T08:04:53;16.25;;;9.00;;
24644;SDS011;12780;45.502;9.146;2023-12-04T08:07:19;15.60;;;8.98;;
24644;SDS011;12780;45.502;9.146;2023-12-04T08:09:45;15.68;;;8.82;;
24644;SDS011;12780;45.502;9.146;2023-12-04T08:12:11;25.98;;;9.23;;
24644;SDS011;12780;45.502;9.146;2023-12-04T08:14:37;23.17;;;9.20;;
24644;SDS011;12780;45.502;9.146;2023-12-04T08:17:05;17.77;;;9.60;;
24644;SDS011;12780;45.502;9.146;2023-12-04T08:19:31;16.83;;;9.02;;
24644;SDS011;12780;45.502;9.146;2023-12-04T08:21:57;19.45;;;9.80;;
24644;SDS011;12780;45.502;9.146;2023-12-04T08:24:23;28.60;;;10.70;;
24644;SDS011;12780;45.502;9.146;2023-12-04T08:26:49;17.77;;;9.55;;
24644;SDS011;12780;45.502;9.146;2023-12-04T08:29:15;18.38;;;8.95;;
24644;SDS011;12780;45.502;9.146;2023-12-04T08:31:42;16.98;;;9.55;;
24644;SDS011;12780;45.502;9.146;2023-12-04T08:34:08;16.63;;;9.43;;
24644;SDS011;12780;45.502;9.146;2023-12-04T08:36:34;24.92;;;8.90;;
24644;SDS011;12780;45.502;9.146;2023-12-04T08:39:00;17.52;;;8.35;;
24644;SDS011;12780;45.502;9.146;2023-12-04T08:41:26;15.07;;;8.13;;
24644;SDS011;12780;45.502;9.146;2023-12-04T08:43:53;18.67;;;8.27;;
24644;SDS011;12780;45.502;9.146;2023-12-04T08:46:20;16.35;;;8.68;;
24644;SDS011;12780;45.502;9.146;2023-12-04T08:48:46;18.55;;;8.52;;
24644;SDS011;12780;45.502;9.146;2023-12-04T08:51:16;19.65;;;8.85;;
24644;SDS011;12780;45.502;9.146;2023-12-04T08:53:42;18.67;;;8.80;;
24644;SDS011;12780;45.502;9.146;2023-12-04T08:56:08;18.42;;;8.68;;
24644;SDS011;12780;45.502;9.146;2023-12-04T08:58:34;15.80;;;9.05;;
24644;SDS011;12780;45.502;9.146;2023-12-04T09:01:00;15.38;;;8.20;;
24644;SDS011;12780;45.502;9.146;2023-12-04T09:03:26;15.15;;;8.63;;
24644;SDS011;12780;45.502;9.146;2023-12-04T09:05:52;15.63;;;8.70;;
24644;SDS011;12780;45.502;9.146;2023-12-04T09:08:20;21.38;;;8.85;;
24644;SDS011;12780;45.502;9.146;2023-12-04T09:10:46;16.45;;;8.90;;
24644;SDS011;12780;45.502;9.146;2023-12-04T09:13:12;18.30;;;8.93;;
24644;SDS011;12780;45.502;9.146;2023-12-04T09:15:39;12.93;;;8.48;;
24644;SDS011;12780;45.502;9.146;2023-12-04T09:18:05;15.45;;;8.25;;
24644;SDS011;12780;45.502;9.146;2023-12-04T09:20:31;16.80;;;9.45;;
24644;SDS011;12780;45.502;9.146;2023-12-04T09:22:57;16.95;;;8.95;;
24644;SDS011;12780;45.502;9.146;2023-12-04T09:25:23;14.77;;;8.10;;
24644;SDS011;12780;45.502;9.146;2023-12-04T09:27:49;15.95;;;8.35;;
24644;SDS011;12780;45.502;9.146;2023-12-04T09:30:15;13.38;;;7.68;;
24644;SDS011;12780;45.502;9.146;2023-12-04T09:32:41;15.38;;;7.57;;
24644;SDS011;12780;45.502;9.146;2023-12-04T09:35:08;16.13;;;7.95;;
24644;SDS011;12780;45.502;9.146;2023-12-04T09:37:34;20.08;;;8.75;;
24644;SDS011;12780;45.502;9.146;2023-12-04T09:40:00;15.98;;;8.07;;
24644;SDS011;12780;45.502;9.146;2023-12-04T09:42:27;20.60;;;8.95;;
24644;SDS011;12780;45.502;9.146;2023-12-04T09:44:53;17.20;;;8.50;;
24644;SDS011;12780;45.502;9.146;2023-12-04T09:47:20;16.10;;;7.93;;
24644;SDS011;12780;45.502;9.146;2023-12-04T09:49:47;15.25;;;8.50;;
24644;SDS011;12780;45.502;9.146;2023-12-04T09:52:14;15.32;;;8.10;;
24644;SDS011;12780;45.502;9.146;2023-12-04T09:54:40;15.88;;;8.63;;
24644;SDS011;12780;45.502;9.146;2023-12-04T09:57:08;16.77;;;9.07;;
24644;SDS011;12780;45.502;9.146;2023-12-04T09:59:34;12.98;;;7.78;;
24644;SDS011;12780;45.502;9.146;2023-12-04T10:02:01;16.13;;;8.52;;
24644;SDS011;12780;45.502;9.146;2023-12-04T10:04:27;15.32;;;8.65;;
24644;SDS011;12780;45.502;9.146;2023-12-04T10:06:53;16.48;;;8.73;;
24644;SDS011;12780;45.502;9.146;2023-12-04T10:09:19;14.07;;;8.23;;
24644;SDS011;12780;45.502;9.146;2023-12-04T10:11:47;15.32;;;8.43;;
24644;SDS011;12780;45.502;9.146;2023-12-04T10:14:14;19.17;;;9.43;;
24644;SDS011;12780;45.502;9.146;2023-12-04T10:16:42;15.20;;;8.73;;
24644;SDS011;12780;45.502;9.146;2023-12-04T10:19:24;23.10;;;8.80;;
24644;SDS011;12780;45.502;9.146;2023-12-04T10:21:57;18.40;;;9.30;;
24644;SDS011;12780;45.502;9.146;2023-12-04T10:26:53;14.80;;;8.55;;
24644;SDS011;12780;45.502;9.146;2023-12-04T10:29:19;22.88;;;9.18;;
24644;SDS011;12780;45.502;9.146;2023-12-04T10:31:45;18.75;;;8.60;;
24644;SDS011;12780;45.502;9.146;2023-12-04T10:34:13;15.68;;;8.60;;
24644;SDS011;12780;45.502;9.146;2023-12-04T10:36:39;16.20;;;8.20;;
24644;SDS011;12780;45.502;9.146;2023-12-04T10:39:05;14.63;;;8.40;;
24644;SDS011;12780;45.502;9.146;2023-12-04T10:41:31;17.60;;;9.05;;
24644;SDS011;12780;45.502;9.146;2023-12-04T10:43:57;15.88;;;8.73;;
24644;SDS011;12780;45.502;9.146;2023-12-04T10:46:26;14.95;;;7.65;;
24644;SDS011;12780;45.502;9.146;2023-12-04T10:48:52;17.70;;;8.38;;
24644;SDS011;12780;45.502;9.146;2023-12-04T10:51:18;13.20;;;8.13;;
24644;SDS011;12780;45.502;9.146;2023-12-04T10:53:47;14.93;;;8.00;;
24644;SDS011;12780;45.502;9.146;2023-12-04T10:56:46;18.27;;;8.30;;
24644;SDS011;12780;45.502;9.146;2023-12-04T10:59:10;14.55;;;8.48;;
24644;SDS011;12780;45.502;9.146;2023-12-04T11:01:37;17.17;;;8.65;;
24644;SDS011;12780;45.502;9.146;2023-12-04T11:04:04;16.25;;;8.20;;
24644;SDS011;12780;45.502;9.146;2023-12-04T11:06:32;16.48;;;8.45;;
24644;SDS011;12780;45.502;9.146;2023-12-04T11:09:00;15.85;;;8.27;;
24644;SDS011;12780;45.502;9.146;2023-12-04T11:11:30;20.33;;;8.10;;
24644;SDS011;12780;45.502;9.146;2023-12-04T11:13:59;16.45;;;8.27;;
24644;SDS011;12780;45.502;9.146;2023-12-04T11:16:43;15.40;;;8.68;;
24644;SDS011;12780;45.502;9.146;2023-12-04T11:19:21;15.60;;;7.80;;
24644;SDS011;12780;45.502;9.146;2023-12-04T11:21:49;14.70;;;8.13;;
24644;SDS011;12780;45.502;9.146;2023-12-04T11:24:16;19.67;;;9.30;;
24644;SDS011;12780;45.502;9.146;2023-12-04T11:26:43;14.35;;;7.82;;
24644;SDS011;12780;45.502;9.146;2023-12-04T11:29:09;18.50;;;8.32;;
24644;SDS011;12780;45.502;9.146;2023-12-04T11:31:37;16.90;;;7.82;;
24644;SDS011;12780;45.502;9.146;2023-12-04T11:34:03;15.73;;;7.90;;
24644;SDS011;12780;45.502;9.146;2023-12-04T11:36:30;13.45;;;7.93;;
24644;SDS011;12780;45.502;9.146;2023-12-04T11:38:56;14.65;;;7.93;;
24644;SDS011;12780;45.502;9.146;2023-12-04T11:41:23;13.07;;;8.25;;
24644;SDS011;12780;45.502;9.146;2023-12-04T11:43:49;12.07;;;7.55;;
24644;SDS011;12780;45.502;9.146;2023-12-04T11:46:19;20.42;;;7.85;;
24644;SDS011;12780;45.502;9.146;2023-12-04T11:48:48;13.63;;;7.80;;
24644;SDS011;12780;45.502;9.146;2023-12-04T11:51:45;15.20;;;7.97;;
24644;SDS011;12780;45.502;9.146;2023-12-04T11:54:00;18.63;;;8.80;;
24644;SDS011;12780;45.502;9.146;2023-12-04T11:56:29;15.93;;;8.27;;
24644;SDS011;12780;45.502;9.146;2023-12-04T11:59:02;15.15;;;8.02;;
24644;SDS011;12780;45.502;9.146;2023-12-04T12:01:28;15.40;;;8.30;;
24644;SDS011;12780;45.502;9.146;2023-12-04T12:03:57;16.63;;;8.27;;
24644;SDS011;12780;45.502;9.146;2023-12-04T12:06:23;13.73;;;8.07;;
24644;SDS011;12780;45.502;9.146;2023-12-04T12:08:49;16.63;;;7.85;;
24644;SDS011;12780;45.502;9.146;2023-12-04T12:11:16;15.25;;;7.85;;
24644;SDS011;12780;45.502;9.146;2023-12-04T12:13:42;15.85;;;8.15;;
24644;SDS011;12780;45.502;9.146;2023-12-04T12:16:10;17.33;;;8.40;;
24644;SDS011;12780;45.502;9.146;2023-12-04T12:18:36;16.58;;;7.95;;
24644;SDS011;12780;45.502;9.146;2023-12-04T12:21:04;16.90;;;8.00;;
24644;SDS011;12780;45.502;9.146;2023-12-04T12:23:31;14.90;;;7.80;;
24644;SDS011;12780;45.502;9.146;2023-12-04T12:25:58;16.33;;;8.57;;
24644;SDS011;12780;45.502;9.146;2023-12-04T12:28:25;14.30;;;7.70;;
24644;SDS011;12780;45.502;9.146;2023-12-04T12:30:50;15.57;;;8.38;;
24644;SDS011;12780;45.502;9.146;2023-12-04T12:33:19;13.80;;;8.00;;
24644;SDS011;12780;45.502;9.146;2023-12-04T12:35:46;16.77;;;8.43;;
24644;SDS011;12780;45.502;9.146;2023-12-04T12:38:13;16.02;;;8.02;;
24644;SDS011;12780;45.502;9.146;2023-12-04T12:40:39;16.35;;;8.18;;
24644;SDS011;12780;45.502;9.146;2023-12-04T12:43:06;15.68;;;7.93;;
24644;SDS011;12780;45.502;9.146;2023-12-04T12:45:42;18.13;;;8.57;;
24644;SDS011;12780;45.502;9.146;2023-12-04T12:48:15;17.85;;;8.20;;
24644;SDS011;12780;45.502;9.146;2023-12-04T12:53:08;11.93;;;6.22;;
24644;SDS011;12780;45.502;9.146;2023-12-04T12:55:37;13.95;;;6.70;;
24644;SDS011;12780;45.502;9.146;2023-12-04T12:58:04;13.30;;;6.88;;
24644;SDS011;12780;45.502;9.146;2023-12-04T13:00:31;12.80;;;7.55;;
24644;SDS011;12780;45.502;9.146;2023-12-04T13:02:58;16.58;;;7.53;;
24644;SDS011;12780;45.502;9.146;2023-12-04T13:05:24;14.38;;;7.43;;
24644;SDS011;12780;45.502;9.146;2023-12-04T13:07:50;16.05;;;8.20;;
24644;SDS011;12780;45.502;9.146;2023-12-04T13:10:16;13.73;;;8.25;;
24644;SDS011;12780;45.502;9.146;2023-12-04T13:12:42;13.82;;;7.72;;
24644;SDS011;12780;45.502;9.146;2023-12-04T13:15:08;15.88;;;7.13;;
24644;SDS011;12780;45.502;9.146;2023-12-04T13:17:35;13.48;;;8.25;;
24644;SDS011;12780;45.502;9.146;2023-12-04T13:20:01;17.73;;;7.90;;
24644;SDS011;12780;45.502;9.146;2023-12-04T13:22:29;15.10;;;7.07;;
24644;SDS011;12780;45.502;9.146;2023-12-04T13:24:58;15.38;;;8.45;;
24644;SDS011;12780;45.502;9.146;2023-12-04T13:27:24;12.15;;;7.20;;
24644;SDS011;12780;45.502;9.146;2023-12-04T13:29:50;12.27;;;7.40;;
24644;SDS011;12780;45.502;9.146;2023-12-04T13:32:16;13.30;;;7.32;;
24644;SDS011;12780;45.502;9.146;2023-12-04T13:34:42;14.60;;;7.25;;
24644;SDS011;12780;45.502;9.146;2023-12-04T13:37:08;12.30;;;6.13;;
24644;SDS011;12780;45.502;9.146;2023-12-04T13:39:34;15.23;;;6.95;;
24644;SDS011;12780;45.502;9.146;2023-12-04T13:42:15;13.52;;;7.05;;
24644;SDS011;12780;45.502;9.146;2023-12-04T13:45:00;12.55;;;6.68;;
24644;SDS011;12780;45.502;9.146;2023-12-04T13:47:27;16.55;;;7.13;;
24644;SDS011;12780;45.502;9.146;2023-12-04T13:49:53;14.40;;;7.00;;
24644;SDS011;12780;45.502;9.146;2023-12-04T13:52:20;15.45;;;7.75;;
24644;SDS011;12780;45.502;9.146;2023-12-04T13:54:48;12.88;;;6.80;;
24644;SDS011;12780;45.502;9.146;2023-12-04T13:57:15;12.18;;;6.93;;
24644;SDS011;12780;45.502;9.146;2023-12-04T13:59:53;12.43;;;7.30;;
24644;SDS011;12780;45.502;9.146;2023-12-04T14:02:21;11.85;;;7.30;;
24644;SDS011;12780;45.502;9.146;2023-12-04T14:04:47;18.33;;;7.47;;
24644;SDS011;12780;45.502;9.146;2023-12-04T14:07:13;12.48;;;7.38;;
24644;SDS011;12780;45.502;9.146;2023-12-04T14:09:40;14.23;;;7.65;;
24644;SDS011;12780;45.502;9.146;2023-12-04T14:12:07;13.15;;;7.20;;
24644;SDS011;12780;45.502;9.146;2023-12-04T14:14:33;14.35;;;7.53;;
24644;SDS011;12780;45.502;9.146;2023-12-04T14:17:00;14.05;;;7.15;;
24644;SDS011;12780;45.502;9.146;2023-12-04T14:19:28;13.00;;;7.18;;
24644;SDS011;12780;45.502;9.146;2023-12-04T14:21:54;14.73;;;8.15;;
24644;SDS011;12780;45.502;9.146;2023-12-04T14:24:21;18.85;;;8.50;;
24644;SDS011;12780;45.502;9.146;2023-12-04T14:26:48;17.77;;;9.52;;
24644;SDS011;12780;45.502;9.146;2023-12-04T14:29:14;16.52;;;8.88;;
24644;SDS011;12780;45.502;9.146;2023-12-04T14:31:40;16.83;;;9.13;;
24644;SDS011;12780;45.502;9.146;2023-12-04T14:34:06;21.77;;;9.13;;
24644;SDS011;12780;45.502;9.146;2023-12-04T14:36:33;23.70;;;10.27;;